Dades meteomassalio
Diari Summary for Maig 26, 2017 Units:  Metric    English   Both
« Previous Day
Next Day »
Diari Semanal Mensual Anual Personalitzat
  Maxima: Minima: Mijana:
Temperatura: -17.8 °C -10.6 °C -4.9 °C
Rosada: -17.8 °C -15.1 °C -12.2 °C
Humitat: Humidity % 22 % 45 %
Velocitat del vent: 0 km/h 0 km/h 13.4 km/h
Racha vent: 0 km/h - -
Vent:- - ESE
Pressio: 0 hPa 34198.6 hPa -
Pluja: 0 mm    
Historical Graphs
 
 
Tabular Data for Maig 26, 2017
Time Temperature Dew Point Pressure Wind Wind Speed Wind Gust Humidity Rainfall Rate (Hourly) solar Conditions
-17.8 °C -17.8 °C 0 hPa Calm     Humidity % 0 mm SolarRadiationWatts/m^2 W/m2 Conditions
00:04 -5.3 °C -14.1 °C 34279.9 hPa Calm     36 % 0 mm 0.0 W/m2 CLR
00:09 -5.5 °C -14.1 °C 34279.9 hPa Calm     37 % 0 mm 0.0 W/m2 CLR
00:14 -5.7 °C -14.2 °C 34279.9 hPa Calm     37 % 0 mm 0.0 W/m2 CLR
00:19 -5.9 °C -14.2 °C 34279.9 hPa Calm     38 % 0 mm 0.0 W/m2 CLR
00:29 -6.3 °C -13.7 °C 34279.9 hPa Calm     42 % 0 mm 0.0 W/m2 CLR
00:34 -6.4 °C -14.1 °C 34279.9 hPa Calm     41 % 0 mm 0.0 W/m2 CLR
00:39 -6.6 °C -14.2 °C 34279.9 hPa Calm     41 % 0 mm 0.0 W/m2 CLR
00:44 -6.6 °C -14.1 °C 34279.9 hPa Calm     42 % 0 mm 0.0 W/m2 CLR
00:49 -6.8 °C -13.9 °C 34293.4 hPa Calm     43 % 0 mm 0.0 W/m2 CLR
00:54 -6.9 °C -13.9 °C 34293.4 hPa Calm     44 % 0 mm 0.0 W/m2 CLR
00:59 -7.1 °C -13.9 °C 34293.4 hPa Calm     45 % 0 mm 0.0 W/m2 CLR
01:04 -7.2 °C -13.8 °C 34293.4 hPa Calm     46 % 0 mm 0.0 W/m2 CLR
01:09 -7.4 °C -14 °C 34293.4 hPa Calm     46 % 0 mm 0.0 W/m2 CLR
01:14 -7.6 °C -14.1 °C 34293.4 hPa Calm     46 % 0 mm 0.0 W/m2 CLR
01:19 -7.7 °C -14.1 °C 34293.4 hPa Calm     47 % 0 mm 0.0 W/m2 CLR
01:24 -7.7 °C -13.8 °C 34293.4 hPa Calm     49 % 0 mm 0.0 W/m2 CLR
01:29 -7.9 °C -13.9 °C 34293.4 hPa Calm     49 % 0 mm 0.0 W/m2 CLR
01:34 -7.9 °C -13.9 °C 34293.4 hPa Calm     49 % 0 mm 0.0 W/m2 CLR
01:39 -8.1 °C -14.3 °C 34293.4 hPa Calm     48 % 0 mm 0.0 W/m2 CLR
01:44 -8.1 °C -14 °C 34293.4 hPa Calm     50 % 0 mm 0.0 W/m2 CLR
01:49 -8.2 °C -14 °C 34293.4 hPa Calm     50 % 0 mm 0.0 W/m2 CLR
01:54 -8.3 °C -13.9 °C 34293.4 hPa Calm     51 % 0 mm 0.0 W/m2 CLR
01:59 -8.4 °C -14.1 °C 34293.4 hPa Calm     51 % 0 mm 0.0 W/m2 CLR
02:04 -8.5 °C -14.2 °C 34279.9 hPa Calm     51 % 0 mm 0.0 W/m2 CLR
02:09 -8.6 °C -13.9 °C 34279.9 hPa Calm     53 % 0 mm 0.0 W/m2 CLR
02:14 -8.7 °C -14 °C 34279.9 hPa Calm     53 % 0 mm 0.0 W/m2 CLR
02:19 -8.7 °C -14.1 °C 34279.9 hPa Calm     53 % 0 mm 0.0 W/m2 CLR
02:24 -8.8 °C -14.3 °C 34279.9 hPa Calm     52 % 0 mm 0.0 W/m2 CLR
02:29 -8.8 °C -14.2 °C 34279.9 hPa Calm     53 % 0 mm 0.0 W/m2 CLR
02:30 -8.8 °C -14.2 °C 34293.4 hPa Calm     53 % 0 mm 0.0 W/m2 CLR
02:35 -8.8 °C -14.2 °C 34279.9 hPa Calm     53 % 0 mm 0.0 W/m2 CLR
02:40 -8.9 °C -14.1 °C 34279.9 hPa Calm     54 % 0 mm 0.0 W/m2 CLR
02:45 -9 °C -14.1 °C 34279.9 hPa Calm     54 % 0 mm 0.0 W/m2 CLR
02:50 -9.1 °C -14.1 °C 34279.9 hPa Calm     55 % 0 mm 0.0 W/m2 CLR
02:55 -9.2 °C -14.2 °C 34293.4 hPa Calm     55 % 0 mm 0.0 W/m2 CLR
03:00 -9.2 °C -14.2 °C 34279.9 hPa Calm     55 % 0 mm 0.0 W/m2 CLR
03:05 -9.3 °C -14.3 °C 34279.9 hPa Calm     55 % 0 mm 0.0 W/m2 CLR
03:10 -9.4 °C -14.4 °C 34293.4 hPa Calm     55 % 0 mm 0.0 W/m2 CLR
03:11 -9.4 °C -14.2 °C 34279.9 hPa Calm     56 % 0 mm 0.0 W/m2 CLR
03:16 -9.4 °C -14.3 °C 34279.9 hPa Calm     56 % 0 mm 0.0 W/m2 CLR
03:21 -9.4 °C -14.3 °C 34293.4 hPa Calm     56 % 0 mm 0.0 W/m2 CLR
03:26 -9.5 °C -14.3 °C 34293.4 hPa Calm     56 % 0 mm 0.0 W/m2 CLR
03:31 -9.6 °C -14.2 °C 34293.4 hPa Calm     57 % 0 mm 0.0 W/m2 CLR
03:41 -9.7 °C -14.3 °C 34279.9 hPa Calm     57 % 0 mm 0.0 W/m2 CLR
03:46 -9.7 °C -14.5 °C 34293.4 hPa Calm     56 % 0 mm 0.0 W/m2 CLR
03:51 -9.6 °C -14.4 °C 34293.4 hPa Calm     56 % 0 mm 0.0 W/m2 CLR
03:56 -9.6 °C -14.4 °C 34279.9 hPa Calm     56 % 0 mm 0.0 W/m2 CLR
04:01 -9.7 °C -14.3 °C 34279.9 hPa Calm     57 % 0 mm 0.0 W/m2 CLR
04:06 -9.8 °C -14.5 °C 34293.4 hPa Calm     57 % 0 mm 0.0 W/m2 CLR
04:11 -9.9 °C -14.4 °C 34293.4 hPa Calm     58 % 0 mm 0.0 W/m2 CLR
04:16 -9.9 °C -14.3 °C 34293.4 hPa Calm     59 % 0 mm 0.0 W/m2 CLR
04:21 -10.1 °C -14.4 °C 34293.4 hPa Calm     59 % 0 mm 0.0 W/m2 CLR
04:26 -10.1 °C -14.4 °C 34293.4 hPa Calm     59 % 0 mm 0.0 W/m2 CLR
04:31 -10.1 °C -14.5 °C 34293.4 hPa Calm     59 % 0 mm 0.0 W/m2 CLR
04:36 -10.1 °C -14.5 °C 34293.4 hPa Calm     59 % 0 mm 0.0 W/m2 CLR
04:41 -10.1 °C -14.7 °C 34293.4 hPa Calm     57 % 0 mm 0.0 W/m2 CLR
04:46 -10.1 °C -14.6 °C 34293.4 hPa Calm     58 % 0 mm 0.0 W/m2 CLR
04:51 -10.1 °C -14.6 °C 34293.4 hPa Calm     58 % 0 mm 0.0 W/m2 CLR
04:56 -10.1 °C -14.6 °C 34293.4 hPa Calm     58 % 0 mm 0.0 W/m2 CLR
05:01 -10.1 °C -14.6 °C 34293.4 hPa Calm     58 % 0 mm 0.0 W/m2 CLR
05:06 -10.1 °C -14.6 °C 34293.4 hPa Calm     58 % 0 mm 0.0 W/m2 CLR
05:11 -10.2 °C -14.7 °C 34293.4 hPa Calm     58 % 0 mm 0.0 W/m2 CLR
05:16 -10.2 °C -14.7 °C 34293.4 hPa Calm     58 % 0 mm 0.0 W/m2 CLR
05:21 -10.1 °C -14.6 °C 34293.4 hPa Calm     58 % 0 mm 0.0 W/m2 CLR
05:26 -10.2 °C -14.8 °C 34293.4 hPa Calm     57 % 0 mm 0.0 W/m2 CLR
05:31 -10.2 °C -14.9 °C 34293.4 hPa Calm     57 % 0 mm 0.0 W/m2 CLR
05:36 -10.2 °C -14.9 °C 34293.4 hPa Calm     57 % 0 mm 0.0 W/m2 CLR
05:41 -10.2 °C -14.8 °C 34293.4 hPa Calm     58 % 0 mm 0.0 W/m2 CLR
05:46 -10.3 °C -14.8 °C 34279.9 hPa Calm     58 % 0 mm 0.0 W/m2 CLR
05:51 -10.3 °C -14.8 °C 34293.4 hPa Calm     58 % 0 mm 0.0 W/m2 CLR
05:56 -10.4 °C -14.8 °C 34293.4 hPa Calm     59 % 0 mm 0.0 W/m2 CLR
06:01 -10.5 °C -14.8 °C 34293.4 hPa Calm     59 % 0 mm 0.0 W/m2 CLR
06:06 -10.5 °C -14.8 °C 34293.4 hPa Calm     59 % 0 mm 0.0 W/m2 CLR
06:11 -10.5 °C -14.8 °C 34293.4 hPa Calm     60 % 0 mm 0.0 W/m2 CLR
06:17 -10.6 °C -14.8 °C 34293.4 hPa Calm     60 % 0 mm 0.0 W/m2 CLR
06:22 -10.6 °C -14.9 °C 34293.4 hPa Calm     59 % 0 mm 0.0 W/m2 CLR
06:27 -10.6 °C -14.9 °C 34293.4 hPa Calm     59 % 0 mm 0.0 W/m2 OVC
06:32 -10.6 °C -14.9 °C 34293.4 hPa Calm     59 % 0 mm 5.0 W/m2 OVC
06:37 -10.6 °C -14.8 °C 34293.4 hPa Calm     60 % 0 mm 7.0 W/m2 BKN
06:42 -10.6 °C -14.9 °C 34293.4 hPa Calm     59 % 0 mm 11.0 W/m2 BKN
06:47 -10.5 °C -15 °C 34293.4 hPa Calm     58 % 0 mm 12.0 W/m2 BKN
06:52 -10.5 °C -15.1 °C 34293.4 hPa Calm     57 % 0 mm 16.0 W/m2 BKN
06:57 -10.4 °C -14.9 °C 34293.4 hPa Calm     58 % 0 mm 18.0 W/m2 BKN
07:02 -10.5 °C -15 °C 34293.4 hPa Calm     58 % 0 mm 23.0 W/m2 BKN
07:07 -10.5 °C -14.9 °C 34293.4 hPa Calm     59 % 0 mm 28.0 W/m2 BKN
07:12 -10.5 °C -14.8 °C 34293.4 hPa Calm     59 % 0 mm 32.0 W/m2 BKN
07:17 -10.4 °C -14.8 °C 34293.4 hPa Calm     59 % 0 mm 44.0 W/m2 BKN
07:22 -10.4 °C -14.8 °C 34293.4 hPa Calm     59 % 0 mm 54.0 W/m2 SCT
07:27 -10.4 °C -14.7 °C 34303.6 hPa Calm     59 % 0 mm 65.0 W/m2 SCT
07:32 -10.2 °C -14.6 °C 34303.6 hPa Calm     59 % 0 mm 77.0 W/m2 FEW
07:37 -10 °C -14.6 °C 34303.6 hPa Calm     58 % 0 mm 90.0 W/m2 FEW
07:42 -9.8 °C -14.4 °C 34303.6 hPa Calm     57 % 0 mm 104.0 W/m2 CLR
07:47 -9.6 °C -14.4 °C 34303.6 hPa Calm     56 % 0 mm 120.0 W/m2 CLR
07:52 -9.3 °C -14.5 °C 34303.6 hPa Calm     54 % 0 mm 135.0 W/m2 CLR
07:57 -9.2 °C -14.5 °C 34303.6 hPa Calm     53 % 0 mm 151.0 W/m2 CLR
08:02 -9.1 °C -14.3 °C 34303.6 hPa Calm     53 % 0 mm 167.0 W/m2 CLR
08:07 -8.8 °C -14.3 °C 34303.6 hPa Calm     52 % 0 mm 185.0 W/m2 CLR
08:12 -8.6 °C -14.4 °C 34303.6 hPa Calm     50 % 0 mm 200.0 W/m2 CLR
08:17 -8.4 °C -14.4 °C 34303.6 hPa Calm     49 % 0 mm 216.0 W/m2 CLR
08:22 -8.2 °C -14.3 °C 34303.6 hPa Calm     48 % 0 mm 232.0 W/m2 CLR
08:23 -8.1 °C -14.3 °C 34303.6 hPa Calm     48 % 0 mm 237.0 W/m2 CLR
08:28 -7.8 °C -14 °C 34303.6 hPa Calm     48 % 0 mm 251.0 W/m2 CLR
08:33 -7.4 °C -13.8 °C 34303.6 hPa Calm     47 % 0 mm 265.0 W/m2 CLR
08:38 -7.1 °C -14.1 °C 34303.6 hPa Calm     44 % 0 mm 279.0 W/m2 CLR
08:43 -6.8 °C -13.8 °C 34303.6 hPa Calm     44 % 0 mm 299.0 W/m2 CLR
08:48 -6.6 °C -13.9 °C 34303.6 hPa Calm     42 % 0 mm 313.0 W/m2 CLR
08:53 -6.4 °C -14.2 °C 34303.6 hPa Calm     40 % 0 mm 327.0 W/m2 CLR
08:58 -6.1 °C -14.2 °C 34303.6 hPa Calm     39 % 0 mm 343.0 W/m2 CLR
09:03 -5.8 °C -14.1 °C 34303.6 hPa Calm     38 % 0 mm 362.0 W/m2 CLR
09:08 -5.5 °C -13.6 °C 34303.6 hPa Calm     39 % 0 mm 376.0 W/m2 CLR
09:13 -5.1 °C -13.9 °C 34313.7 hPa Calm     36 % 0 mm 390.0 W/m2 CLR
09:18 -4.8 °C -13.9 °C 34313.7 hPa Calm     35 % 0 mm 404.0 W/m2 CLR
09:23 -4.6 °C -14.2 °C 34303.6 hPa ENE 9 km/h 9 km/h 33 % 0 mm 422.0 W/m2 CLR
09:28 -4.4 °C -14 °C 34303.6 hPa Calm     33 % 0 mm 436.0 W/m2 CLR
09:33 -4.3 °C -13.7 °C 34303.6 hPa Calm     34 % 0 mm 452.0 W/m2 CLR
09:38 -4.3 °C -13.7 °C 34303.6 hPa Calm     34 % 0 mm 466.0 W/m2 CLR
09:43 -4.2 °C -13.4 °C 34303.6 hPa Calm     35 % 0 mm 478.0 W/m2 CLR
09:48 -4.2 °C -13.3 °C 34303.6 hPa ENE 9 km/h 9 km/h 35 % 0 mm 496.0 W/m2 CLR
09:53 -4.1 °C -13.3 °C 34303.6 hPa ENE 9 km/h 9 km/h 35 % 0 mm 512.0 W/m2 CLR
09:58 -4 °C -12.9 °C 34303.6 hPa ENE 10.3 km/h 10.3 km/h 36 % 0 mm 522.0 W/m2 CLR
10:03 -3.8 °C -12.8 °C 34293.4 hPa ENE 15 km/h 15 km/h 36 % 0 mm 538.0 W/m2 CLR
10:08 -3.8 °C -12.7 °C 34293.4 hPa ENE 12.9 km/h 12.9 km/h 36 % 0 mm 554.0 W/m2 CLR
10:13 -3.6 °C -12.6 °C 34293.4 hPa ENE 11.9 km/h 11.9 km/h 36 % 0 mm 566.0 W/m2 CLR
10:18 -3.4 °C -12.6 °C 34293.4 hPa ENE 11.9 km/h 11.9 km/h 35 % 0 mm 578.0 W/m2 CLR
10:23 -3.3 °C -12.3 °C 34293.4 hPa ENE 9 km/h 9 km/h 36 % 0 mm 596.0 W/m2 CLR
10:28 -3.2 °C -11.8 °C 34293.4 hPa NE 15 km/h 15 km/h 38 % 0 mm 608.0 W/m2 CLR
10:33 -3.2 °C -11.7 °C 34293.4 hPa ENE 17.9 km/h 17.9 km/h 38 % 0 mm 624.0 W/m2 CLR
10:36 -3.1 °C -11.7 °C 34293.4 hPa ENE 11.9 km/h 11.9 km/h 38 % 0 mm 628.0 W/m2 CLR
10:41 -3 °C -11.8 °C 34293.4 hPa ENE 15 km/h 15 km/h 37 % 0 mm 642.0 W/m2 CLR
10:46 -2.9 °C -12.1 °C 34293.4 hPa NE 18.2 km/h 18.2 km/h 36 % 0 mm 656.0 W/m2 CLR
10:51 -2.9 °C -12.2 °C 34293.4 hPa NE 17.9 km/h 17.9 km/h 35 % 0 mm 668.0 W/m2 CLR
10:56 -2.8 °C -12.3 °C 34293.4 hPa NNE 17.9 km/h 17.9 km/h 34 % 0 mm 680.0 W/m2 CLR
11:01 -2.7 °C -12.2 °C 34293.4 hPa NE 12.9 km/h 12.9 km/h 34 % 0 mm 693.0 W/m2 CLR
11:06 -2.4 °C -12.6 °C 34293.4 hPa ENE 15 km/h 15 km/h 32 % 0 mm 703.0 W/m2 CLR
11:11 -2.3 °C -12.9 °C 34293.4 hPa ESE 15 km/h 15 km/h 30 % 0 mm 717.0 W/m2 CLR
11:16 -2.2 °C -12.3 °C 34293.4 hPa SE 15 km/h 15 km/h 32 % 0 mm 728.0 W/m2 CLR
11:21 -2.1 °C -12.4 °C 34279.9 hPa NE 11.9 km/h 11.9 km/h 31 % 0 mm 737.0 W/m2 CLR
11:26 -1.8 °C -12 °C 34279.9 hPa North 11.9 km/h 11.9 km/h 32 % 0 mm 749.0 W/m2 CLR
11:31 -1.7 °C -11.6 °C 34279.9 hPa ENE 17.9 km/h 17.9 km/h 33 % 0 mm 761.0 W/m2 CLR
11:36 -1.7 °C -11.3 °C 34279.9 hPa ENE 20.9 km/h 20.9 km/h 34 % 0 mm 772.0 W/m2 CLR
11:41 -1.5 °C -11.5 °C 34279.9 hPa ENE 15 km/h 15 km/h 33 % 0 mm 782.0 W/m2 CLR
11:46 -1.3 °C -12.4 °C 34279.9 hPa SE 20.9 km/h 20.9 km/h 29 % 0 mm 793.0 W/m2 CLR
11:51 -1.3 °C -12.4 °C 34279.9 hPa ENE 17.9 km/h 17.9 km/h 29 % 0 mm 800.0 W/m2 CLR
11:56 -1.2 °C -12.3 °C 34279.9 hPa East 12.9 km/h 12.9 km/h 29 % 0 mm 812.0 W/m2 CLR
12:01 -1.3 °C -12.1 °C 34279.9 hPa East 9 km/h 9 km/h 30 % 0 mm 819.0 W/m2 CLR
12:06 -1.2 °C -11.7 °C 34279.9 hPa ENE 11.9 km/h 11.9 km/h 31 % 0 mm 824.0 W/m2 CLR
12:11 -1.1 °C -11.6 °C 34269.7 hPa ENE 12.9 km/h 12.9 km/h 31 % 0 mm 831.0 W/m2 CLR
12:16 -0.9 °C -11.5 °C 34269.7 hPa Calm     31 % 0 mm 846.0 W/m2 CLR
12:21 -0.9 °C -11.2 °C 34269.7 hPa ENE 20.9 km/h 20.9 km/h 32 % 0 mm 849.0 W/m2 CLR
12:26 -0.7 °C -10.7 °C 34269.7 hPa NNE 20.9 km/h 20.9 km/h 33 % 0 mm 860.0 W/m2 CLR
12:31 -0.7 °C -10.7 °C 34256.2 hPa ENE 20.9 km/h 20.9 km/h 33 % 0 mm 863.0 W/m2 CLR
12:36 -0.7 °C -11 °C 34256.2 hPa ENE 29.8 km/h 29.8 km/h 32 % 0 mm 874.0 W/m2 CLR
12:41 -0.5 °C -10.6 °C 34256.2 hPa ENE 41.4 km/h 41.4 km/h 33 % 0 mm 884.0 W/m2 CLR
12:47 -0.7 °C -10.5 °C 34256.2 hPa NE 29.8 km/h 29.8 km/h 34 % 0 mm 896.0 W/m2 CLR
12:51 -0.6 °C -10.4 °C 34246 hPa ENE 38.8 km/h 38.8 km/h 34 % 0 mm 907.0 W/m2 CLR
12:57 -0.6 °C -10.2 °C 34246 hPa ESE 29.8 km/h 29.8 km/h 35 % 0 mm 918.0 W/m2 CLR
13:02 -0.6 °C -10.4 °C 34246 hPa ENE 26.9 km/h 26.9 km/h 34 % 0 mm 930.0 W/m2 CLR
13:07 -0.4 °C -10.6 °C 34246 hPa ESE 29.8 km/h 29.8 km/h 33 % 0 mm 958.0 W/m2 CLR
13:12 -0.3 °C -12.8 °C 34246 hPa Calm     25 % 0 mm 963.0 W/m2 CLR
13:17 -0.2 °C -13.3 °C 34246 hPa South 20.9 km/h 20.9 km/h 23 % 0 mm 969.0 W/m2 CLR
13:22 -0.1 °C -13.3 °C 34246 hPa ESE 12.9 km/h 12.9 km/h 23 % 0 mm 949.0 W/m2 CLR
13:27 0.1 °C -11.4 °C 34246 hPa ESE 28.5 km/h 28.5 km/h 28 % 0 mm 940.0 W/m2 CLR
13:32 -0.1 °C -10.2 °C 34246 hPa East 29.8 km/h 29.8 km/h 33 % 0 mm 939.0 W/m2 CLR
13:37 -0.1 °C -13.3 °C 34246 hPa South 20.9 km/h 20.9 km/h 23 % 0 mm 937.0 W/m2 CLR
13:42 0.2 °C -13.1 °C 34246 hPa SSE 23.8 km/h 23.8 km/h 23 % 0 mm 935.0 W/m2 CLR
13:47 0.1 °C -13.2 °C 34235.8 hPa South 33.6 km/h 33.6 km/h 23 % 0 mm 933.0 W/m2 CLR
13:52 0.1 °C -13.2 °C 34235.8 hPa SE 9 km/h 9 km/h 23 % 0 mm 930.0 W/m2 CLR
13:57 0.1 °C -12.8 °C 34235.8 hPa South 23.8 km/h 23.8 km/h 24 % 0 mm 925.0 W/m2 CLR
14:02 0.2 °C -12.7 °C 34235.8 hPa SE 38.8 km/h 38.8 km/h 24 % 0 mm 926.0 W/m2 CLR
14:07 0.4 °C -12.9 °C 34235.8 hPa SSE 20.8 km/h 20.8 km/h 23 % 0 mm 925.0 W/m2 CLR
14:12 0.4 °C -13.2 °C 34235.8 hPa SSW 20.9 km/h 20.9 km/h 22 % 0 mm 926.0 W/m2 CLR
14:17 0.3 °C -12.6 °C 34235.8 hPa East 26.9 km/h 26.9 km/h 24 % 0 mm 918.0 W/m2 CLR
14:22 0.1 °C -11.2 °C 34235.8 hPa SE 44.7 km/h 44.7 km/h 29 % 0 mm 912.0 W/m2 CLR
14:27 0.1 °C -10.7 °C 34235.8 hPa SE 50.7 km/h 50.7 km/h 31 % 0 mm 912.0 W/m2 CLR
14:32 -0.2 °C -9.6 °C 34235.8 hPa SE 23.8 km/h 23.8 km/h 36 % 0 mm 909.0 W/m2 CLR
14:37 -0.3 °C -9.9 °C 34235.8 hPa SE 41.7 km/h 41.7 km/h 35 % 0 mm 909.0 W/m2 CLR
14:42 -0.4 °C -10 °C 34235.8 hPa ESE 41.7 km/h 41.7 km/h 35 % 0 mm 902.0 W/m2 CLR
14:47 -0.5 °C -9.8 °C 34222.3 hPa ESE 41.7 km/h 41.7 km/h 36 % 0 mm 902.0 W/m2 CLR
14:52 -0.6 °C -9.7 °C 34222.3 hPa ESE 36.2 km/h 36.2 km/h 37 % 0 mm 893.0 W/m2 CLR
14:57 -0.5 °C -9.9 °C 34222.3 hPa SE 38.8 km/h 38.8 km/h 36 % 0 mm 889.0 W/m2 CLR
15:02 -0.5 °C -10.1 °C 34222.3 hPa ESE 32.8 km/h 32.8 km/h 35 % 0 mm 886.0 W/m2 CLR
15:07 -0.4 °C -10.1 °C 34222.3 hPa SE 38.8 km/h 38.8 km/h 35 % 0 mm 881.0 W/m2 CLR
15:12 -0.4 °C -9.9 °C 34222.3 hPa SE 44.7 km/h 44.7 km/h 35 % 0 mm 874.0 W/m2 CLR
15:17 -0.5 °C -10.1 °C 34222.3 hPa SE 44.7 km/h 44.7 km/h 35 % 0 mm 867.0 W/m2 CLR
15:22 -0.4 °C -10 °C 34222.3 hPa SE 41.7 km/h 41.7 km/h 35 % 0 mm 861.0 W/m2 CLR
15:27 -0.3 °C -10.2 °C 34212.1 hPa SSE 47.6 km/h 47.6 km/h 34 % 0 mm 858.0 W/m2 CLR
15:32 -0.4 °C -10 °C 34212.1 hPa SE 46.7 km/h 46.7 km/h 35 % 0 mm 851.0 W/m2 CLR
15:37 -0.4 °C -10.2 °C 34212.1 hPa East 35.7 km/h 35.7 km/h 34 % 0 mm 844.0 W/m2 CLR
15:38 -0.4 °C -10.2 °C 34212.1 hPa ESE 35.7 km/h 35.7 km/h 34 % 0 mm 844.0 W/m2 CLR
15:43 -0.2 °C -10.1 °C 34212.1 hPa ESE 32.8 km/h 32.8 km/h 34 % 0 mm 837.0 W/m2 CLR
15:48 -0.2 °C -10.1 °C 34212.1 hPa ESE 41.7 km/h 41.7 km/h 34 % 0 mm 828.0 W/m2 CLR
15:53 -0.2 °C -9.8 °C 34212.1 hPa ESE 36.2 km/h 36.2 km/h 35 % 0 mm 821.0 W/m2 CLR
15:58 -0.3 °C -10.4 °C 34198.6 hPa SSE 44.7 km/h 44.7 km/h 33 % 0 mm 814.0 W/m2 CLR
16:03 -0.4 °C -10.1 °C 34212.1 hPa SE 35.7 km/h 35.7 km/h 35 % 0 mm 805.0 W/m2 CLR
16:04 -0.4 °C -9.9 °C 34198.6 hPa East 29.8 km/h 29.8 km/h 35 % 0 mm 798.0 W/m2 CLR
16:09 -0.4 °C -9.5 °C 34198.6 hPa SSE 32.8 km/h 32.8 km/h 37 % 0 mm 791.0 W/m2 CLR
16:14 -0.2 °C -10.1 °C 34198.6 hPa ESE 20.9 km/h 20.9 km/h 34 % 0 mm 779.0 W/m2 CLR
16:19 -0.4 °C -9.5 °C 34198.6 hPa ESE 26.9 km/h 26.9 km/h 37 % 0 mm 768.0 W/m2 CLR
16:24 -0.3 °C -9.7 °C 34198.6 hPa SSE 50.7 km/h 50.7 km/h 36 % 0 mm 759.0 W/m2 CLR
16:29 -0.4 °C -9.9 °C 34198.6 hPa ESE 41.7 km/h 41.7 km/h 35 % 0 mm 747.0 W/m2 CLR
16:34 -0.3 °C -10.4 °C 34198.6 hPa ESE 46.7 km/h 46.7 km/h 33 % 0 mm 744.0 W/m2 CLR
16:39 -0.4 °C -10.8 °C 34198.6 hPa SE 32.8 km/h 32.8 km/h 32 % 0 mm 733.0 W/m2 CLR
16:44 -0.4 °C -10.7 °C 34198.6 hPa SSE 47.6 km/h 47.6 km/h 32 % 0 mm 724.0 W/m2 CLR
16:49 -0.3 °C -10.7 °C 34198.6 hPa SSE 38.8 km/h 38.8 km/h 32 % 0 mm 715.0 W/m2 CLR
16:54 -0.3 °C -11 °C 34198.6 hPa SE 41.7 km/h 41.7 km/h 31 % 0 mm 700.0 W/m2 CLR
16:59 -0.2 °C -10.8 °C 34198.6 hPa SE 56.6 km/h 56.6 km/h 31 % 0 mm 686.0 W/m2 CLR
17:04 -0.2 °C -10.6 °C 34198.6 hPa SSE 32.8 km/h 32.8 km/h 32 % 0 mm 671.0 W/m2 CLR
17:09 -0.2 °C -10.1 °C 34198.6 hPa ESE 41.4 km/h 41.4 km/h 34 % 0 mm 668.0 W/m2 CLR
17:14 -0.4 °C -10.5 °C 34198.6 hPa SE 38.8 km/h 38.8 km/h 33 % 0 mm 626.0 W/m2 CLR
17:19 -0.5 °C -10.6 °C 34198.6 hPa ESE 47.6 km/h 47.6 km/h 33 % 0 mm 635.0 W/m2 CLR
17:24 -0.4 °C -10.2 °C 34198.6 hPa SE 50.7 km/h 50.7 km/h 34 % 0 mm 628.0 W/m2 CLR
17:29 -0.4 °C -10.6 °C 34198.6 hPa SSE 41.7 km/h 41.7 km/h 33 % 0 mm 621.0 W/m2 CLR
17:34 -0.4 °C -10.3 °C 34198.6 hPa SE 33.6 km/h 33.6 km/h 34 % 0 mm 612.0 W/m2 CLR
17:39 -0.3 °C -9.9 °C 34198.6 hPa SE 26.9 km/h 26.9 km/h 35 % 0 mm 559.0 W/m2 CLR
17:44 -0.3 °C -10.9 °C 34198.6 hPa SSE 35.7 km/h 35.7 km/h 31 % 0 mm 592.0 W/m2 CLR
17:49 -0.4 °C -11.3 °C 34198.6 hPa SE 41.7 km/h 41.7 km/h 30 % 0 mm 577.0 W/m2 CLR
17:54 -0.4 °C -11.3 °C 34198.6 hPa SSE 29.8 km/h 29.8 km/h 30 % 0 mm 559.0 W/m2 CLR
17:59 -0.4 °C -11.3 °C 34198.6 hPa SE 35.7 km/h 35.7 km/h 30 % 0 mm 540.0 W/m2 CLR
18:04 -0.4 °C -11.7 °C 34212.1 hPa South 38.8 km/h 38.8 km/h 29 % 0 mm 466.0 W/m2 CLR
18:09 -0.6 °C -11.8 °C 34212.1 hPa SSW 38.8 km/h 38.8 km/h 29 % 0 mm 116.0 W/m2 CLR
18:14 -0.8 °C -12 °C 34212.1 hPa South 32.8 km/h 32.8 km/h 29 % 0 mm 88.0 W/m2 CLR
18:19 -1 °C -12.1 °C 34212.1 hPa SSW 41.7 km/h 41.7 km/h 29 % 0 mm 95.0 W/m2 CLR
18:24 -1.1 °C -11.9 °C 34212.1 hPa South 29.8 km/h 29.8 km/h 30 % 0 mm 104.0 W/m2 CLR
18:30 -1.2 °C -12 °C 34212.1 hPa South 29.8 km/h 29.8 km/h 30 % 0 mm 111.0 W/m2 CLR
18:35 -1.3 °C -11.8 °C 34212.1 hPa South 23.8 km/h 23.8 km/h 31 % 0 mm 111.0 W/m2 CLR
18:40 -1.3 °C -11.9 °C 34212.1 hPa South 29.8 km/h 29.8 km/h 31 % 0 mm 102.0 W/m2 CLR
18:45 -1.4 °C -11.7 °C 34222.3 hPa South 29.8 km/h 29.8 km/h 32 % 0 mm 90.0 W/m2 CLR
18:50 -1.6 °C -11.6 °C 34222.3 hPa South 32.8 km/h 32.8 km/h 33 % 0 mm 81.0 W/m2 CLR
18:55 -1.8 °C -11.4 °C 34235.8 hPa SSW 46.7 km/h 46.7 km/h 34 % 0 mm 70.0 W/m2 FEW
19:00 -2 °C -11.4 °C 34235.8 hPa SSW 32.8 km/h 32.8 km/h 35 % 0 mm 63.0 W/m2 FEW
19:05 -2.1 °C -11.5 °C 34235.8 hPa South 26.9 km/h 26.9 km/h 35 % 0 mm 56.0 W/m2 SCT
19:10 -2.2 °C -11.3 °C 34246 hPa SSW 29.8 km/h 29.8 km/h 36 % 0 mm 49.0 W/m2 SCT
19:15 -2.3 °C -10.9 °C 34246 hPa SSW 29.8 km/h 29.8 km/h 38 % 0 mm 42.0 W/m2 SCT
19:20 -2.4 °C -10.8 °C 34235.8 hPa SSW 23.8 km/h 23.8 km/h 39 % 0 mm 39.0 W/m2 BKN
19:25 -2.4 °C -10.9 °C 34235.8 hPa SSW 32.8 km/h 32.8 km/h 39 % 0 mm 35.0 W/m2 BKN
19:30 -2.6 °C -11 °C 34222.3 hPa South 17.9 km/h 17.9 km/h 39 % 0 mm 32.0 W/m2 BKN
19:35 -2.7 °C -10.9 °C 34222.3 hPa South 38.8 km/h 38.8 km/h 40 % 0 mm 30.0 W/m2 BKN
19:40 -2.7 °C -10.7 °C 34222.3 hPa SSE 41.7 km/h 41.7 km/h 41 % 0 mm 30.0 W/m2 BKN
19:45 -2.8 °C -10.8 °C 34212.1 hPa SSE 47.6 km/h 47.6 km/h 41 % 0 mm 30.0 W/m2 BKN
19:50 -2.9 °C -10.9 °C 34212.1 hPa SE 29.8 km/h 29.8 km/h 41 % 0 mm 32.0 W/m2 BKN
19:55 -2.9 °C -10.9 °C 34212.1 hPa SSE 41.4 km/h 41.4 km/h 41 % 0 mm 35.0 W/m2 BKN
20:00 -3 °C -11 °C 34198.6 hPa SE 50.7 km/h 50.7 km/h 41 % 0 mm 39.0 W/m2 BKN
20:05 -3.1 °C -11.1 °C 34198.6 hPa SSE 29.8 km/h 29.8 km/h 41 % 0 mm 46.0 W/m2 BKN
20:06 -3.1 °C -11.1 °C 34198.6 hPa SE 31.1 km/h 31.1 km/h 41 % 0 mm 47.0 W/m2 BKN
20:11 -3.1 °C -11.3 °C 34198.6 hPa South 41.7 km/h 41.7 km/h 40 % 0 mm 67.0 W/m2 SCT
20:16 -3.1 °C -11.5 °C 34198.6 hPa SSE 38.8 km/h 38.8 km/h 39 % 0 mm 109.0 W/m2 FEW
20:21 -3.1 °C -10.4 °C 34198.6 hPa ESE 29.8 km/h 29.8 km/h 44 % 0 mm 109.0 W/m2 CLR
20:26 -3.4 °C -9.9 °C 34198.6 hPa East 20.9 km/h 20.9 km/h 48 % 0 mm 104.0 W/m2 CLR
20:31 -3.5 °C -9.9 °C 34212.1 hPa ESE 9 km/h 9 km/h 49 % 0 mm 104.0 W/m2 CLR
20:36 -3.6 °C -9.8 °C 34212.1 hPa Calm     50 % 0 mm 116.0 W/m2 CLR
20:41 -3.7 °C -9.4 °C 34212.1 hPa SE 15 km/h 15 km/h 53 % 0 mm 125.0 W/m2 CLR
20:46 -3.9 °C -9.3 °C 34212.1 hPa ESE 11.9 km/h 11.9 km/h 55 % 0 mm 116.0 W/m2 CLR
20:51 -4.1 °C -9.4 °C 34235.8 hPa Calm     55 % 0 mm 95.0 W/m2 CLR
21:01 -4.2 °C -9.3 °C 34235.8 hPa Calm     56 % 0 mm 56.0 W/m2 SCT
21:06 -4.3 °C -9.4 °C 34235.8 hPa East 9 km/h 9 km/h 56 % 0 mm 33.0 W/m2 BKN
21:11 -4.3 °C -9.3 °C 34246 hPa Calm     57 % 0 mm 16.0 W/m2 BKN
21:16 -4.4 °C -9.2 °C 34246 hPa ENE 9 km/h 9 km/h 59 % 0 mm 5.0 W/m2 OVC
21:21 -4.6 °C -9.2 °C 34256.2 hPa Calm     60 % 0 mm 0.0 W/m2 OVC
21:26 -4.8 °C -9.2 °C 34256.2 hPa ENE 9 km/h 9 km/h 61 % 0 mm 0.0 W/m2 OVC
21:31 -4.9 °C -9.1 °C 34256.2 hPa Calm     63 % 0 mm 0.0 W/m2 CLR
21:36 -5.1 °C -9.1 °C 34256.2 hPa Calm     64 % 0 mm 0.0 W/m2 CLR
21:41 -5.2 °C -9.2 °C 34256.2 hPa Calm     64 % 0 mm 0.0 W/m2 CLR
21:46 -5.3 °C -9.1 °C 34256.2 hPa Calm     65 % 0 mm 0.0 W/m2 CLR
21:51 -5.4 °C -9.1 °C 34256.2 hPa Calm     66 % 0 mm 0.0 W/m2 CLR
21:56 -5.5 °C -9.1 °C 34269.7 hPa Calm     67 % 0 mm 0.0 W/m2 CLR
22:01 -5.6 °C -9 °C 34269.7 hPa Calm     68 % 0 mm 0.0 W/m2 CLR
22:06 -5.7 °C -9.1 °C 34269.7 hPa Calm     68 % 0 mm 0.0 W/m2 CLR
22:11 -5.7 °C -9 °C 34279.9 hPa Calm     69 % 0 mm 0.0 W/m2 CLR
22:16 -5.8 °C -9 °C 34279.9 hPa Calm     70 % 0 mm 0.0 W/m2 CLR
22:21 -5.9 °C -9.1 °C 34279.9 hPa Calm     70 % 0 mm 0.0 W/m2 CLR
22:26 -5.9 °C -9 °C 34279.9 hPa Calm     71 % 0 mm 0.0 W/m2 CLR
22:31 -5.9 °C -9 °C 34279.9 hPa Calm     71 % 0 mm 0.0 W/m2 CLR
22:36 -5.9 °C -9 °C 34293.4 hPa Calm     71 % 0 mm 0.0 W/m2 CLR
22:37 -5.9 °C -9 °C 34293.4 hPa Calm     71 % 0 mm 0.0 W/m2 CLR
22:42 -5.9 °C -9.1 °C 34293.4 hPa Calm     70 % 0 mm 0.0 W/m2 CLR
22:47 -5.9 °C -9.1 °C 34293.4 hPa Calm     70 % 0 mm 0.0 W/m2 CLR
22:52 -5.9 °C -9.2 °C 34293.4 hPa Calm     69 % 0 mm 0.0 W/m2 CLR
22:57 -5.9 °C -9.2 °C 34293.4 hPa Calm     69 % 0 mm 0.0 W/m2 CLR
23:02 -5.9 °C -9.3 °C 34293.4 hPa Calm     68 % 0 mm 0.0 W/m2 CLR
23:07 -5.9 °C -9.3 °C 34303.6 hPa Calm     68 % 0 mm 0.0 W/m2 CLR
23:12 -5.9 °C -9.4 °C 34303.6 hPa Calm     68 % 0 mm 0.0 W/m2 CLR
23:17 -6 °C -9.3 °C 34303.6 hPa Calm     69 % 0 mm 0.0 W/m2 CLR
23:22 -6.2 °C -9.3 °C 34293.4 hPa ESE 2.6 km/h 2.6 km/h 70 % 0 mm 0.0 W/m2 CLR
23:27 -6.3 °C -9.3 °C 34293.4 hPa Calm     71 % 0 mm 0.0 W/m2 CLR
23:32 -6.3 °C -9.3 °C 34293.4 hPa Calm     71 % 0 mm 0.0 W/m2 CLR
23:37 -6.3 °C -9.4 °C 34293.4 hPa Calm     71 % 0 mm 0.0 W/m2 CLR
23:42 -6.4 °C -9.4 °C 34293.4 hPa Calm     71 % 0 mm 0.0 W/m2 CLR
23:47 -6.5 °C -9.5 °C 34293.4 hPa Calm     71 % 0 mm 0.0 W/m2 CLR
23:52 -6.5 °C -9.6 °C 34293.4 hPa Calm     71 % 0 mm 0.0 W/m2 CLR
23:57 -6.6 °C -9.6 °C 34303.6 hPa Calm     71 % 0 mm 0.0 W/m2 CLR
Lo Temps de Massalio
Compliments of Weather Underground - 1.25 mb